createdAt,value
2019-03-06T00:02:25.902Z,9.87
2019-03-06T00:04:56.190Z,10.07
2019-03-06T00:07:26.389Z,9.83
2019-03-06T00:09:58.136Z,10.17
2019-03-06T00:12:28.671Z,9.00
2019-03-06T00:14:58.808Z,10.47
2019-03-06T00:17:29.026Z,8.83
2019-03-06T00:19:59.470Z,8.77
2019-03-06T00:22:29.730Z,9.17
2019-03-06T00:25:00.421Z,8.67
2019-03-06T00:27:30.570Z,9.40
2019-03-06T00:30:01.920Z,9.40
2019-03-06T00:32:32.224Z,8.93
2019-03-06T00:35:05.443Z,8.80
2019-03-06T00:37:35.795Z,8.10
2019-03-06T00:40:12.626Z,8.00
2019-03-06T00:42:46.322Z,8.77
2019-03-06T00:45:16.694Z,8.07
2019-03-06T00:47:47.083Z,8.07
2019-03-06T00:50:17.940Z,7.77
2019-03-06T00:52:48.370Z,8.00
2019-03-06T00:55:19.457Z,7.80
2019-03-06T00:57:49.988Z,7.90
2019-03-06T01:00:22.102Z,8.13
2019-03-06T01:02:52.280Z,7.97
2019-03-06T01:05:22.622Z,7.53
2019-03-06T01:07:52.751Z,7.37
2019-03-06T01:10:23.923Z,7.57
2019-03-06T01:12:54.208Z,7.50
2019-03-06T01:15:25.004Z,7.80
2019-03-06T01:17:55.485Z,7.07
2019-03-06T01:20:26.018Z,7.00
2019-03-06T01:22:56.221Z,6.90
2019-03-06T01:25:26.530Z,7.13
2019-03-06T01:27:57.663Z,6.90
2019-03-06T01:30:28.063Z,7.40
2019-03-06T01:33:03.925Z,6.50
2019-03-06T01:35:46.630Z,6.90
2019-03-06T01:38:36.292Z,6.70
2019-03-06T01:41:25.617Z,6.90
2019-03-06T01:44:00.634Z,7.00
2019-03-06T01:46:32.000Z,6.73
2019-03-06T01:49:02.295Z,6.20
2019-03-06T01:51:33.438Z,6.70
2019-03-06T01:54:03.769Z,6.07
2019-03-06T01:56:34.161Z,6.23
2019-03-06T01:59:04.667Z,6.20
2019-03-06T02:01:36.093Z,5.63
2019-03-06T02:04:06.505Z,6.37
2019-03-06T02:06:36.759Z,6.00
2019-03-06T02:09:08.836Z,6.10
2019-03-06T02:11:39.011Z,5.53
2019-03-06T02:14:09.275Z,5.60
2019-03-06T02:16:39.672Z,5.67
2019-03-06T02:19:09.924Z,5.73
2019-03-06T02:21:40.190Z,5.80
2019-03-06T02:24:10.634Z,5.70
2019-03-06T02:26:40.845Z,5.40
2019-03-06T02:29:12.196Z,5.63
2019-03-06T02:31:42.570Z,5.40
2019-03-06T02:34:14.181Z,5.33
2019-03-06T02:36:44.362Z,5.37
2019-03-06T02:39:14.944Z,5.00
2019-03-06T02:41:45.319Z,4.93
2019-03-06T02:44:15.632Z,5.67
2019-03-06T02:46:45.863Z,5.13
2019-03-06T02:49:16.200Z,4.67
2019-03-06T02:51:46.513Z,5.03
2019-03-06T02:54:16.715Z,5.00
2019-03-06T02:56:47.562Z,4.67
2019-03-06T02:59:26.491Z,4.70
2019-03-06T03:02:01.950Z,4.93
2019-03-06T03:04:43.437Z,4.57
2019-03-06T03:07:16.480Z,4.63
2019-03-06T03:09:46.734Z,4.67
2019-03-06T03:12:18.601Z,4.60
2019-03-06T03:14:52.134Z,4.20
2019-03-06T03:17:22.525Z,4.20
2019-03-06T03:19:53.184Z,4.20
2019-03-06T03:22:23.425Z,4.50
2019-03-06T03:24:53.946Z,4.20
2019-03-06T03:27:24.340Z,3.80
2019-03-06T03:29:55.737Z,4.10
2019-03-06T03:32:26.246Z,4.13
2019-03-06T03:34:57.026Z,4.10
2019-03-06T03:37:28.285Z,3.90
2019-03-06T03:39:58.610Z,3.90
2019-03-06T03:42:29.411Z,3.87
2019-03-06T03:45:00.031Z,3.90
2019-03-06T03:47:30.313Z,3.70
2019-03-06T03:50:01.152Z,3.60
2019-03-06T03:52:31.726Z,3.17
2019-03-06T03:55:03.223Z,3.83
2019-03-06T03:57:35.104Z,3.60
2019-03-06T04:00:09.175Z,3.40
2019-03-06T04:02:39.528Z,3.10
2019-03-06T04:05:11.018Z,3.40
2019-03-06T04:07:41.744Z,3.30
2019-03-06T04:10:13.012Z,3.23
2019-03-06T04:12:43.268Z,3.23
2019-03-06T04:15:13.600Z,3.00
2019-03-06T04:17:43.855Z,3.00
2019-03-06T04:20:14.073Z,3.13
2019-03-06T04:22:44.272Z,3.10
2019-03-06T04:25:14.693Z,2.97
2019-03-06T04:27:45.290Z,3.00
2019-03-06T04:30:15.529Z,3.30
2019-03-06T04:32:46.247Z,3.00
2019-03-06T04:35:17.442Z,3.17
2019-03-06T04:37:47.927Z,2.80
2019-03-06T04:40:19.145Z,2.77
2019-03-06T04:42:49.675Z,2.90
2019-03-06T04:45:19.888Z,2.87
2019-03-06T04:47:50.018Z,2.63
2019-03-06T04:50:20.304Z,2.97
2019-03-06T04:53:10.029Z,2.77
2019-03-06T04:55:41.567Z,2.50
2019-03-06T04:58:11.722Z,2.40
2019-03-06T05:00:41.828Z,2.70
2019-03-06T05:03:12.154Z,2.20
2019-03-06T05:05:42.655Z,2.50
2019-03-06T05:08:12.830Z,2.33
2019-03-06T05:10:43.055Z,2.47
2019-03-06T05:13:14.536Z,2.30
2019-03-06T05:15:44.714Z,2.40
2019-03-06T05:18:23.946Z,2.60
2019-03-06T05:20:54.028Z,2.50
2019-03-06T05:23:24.235Z,2.93
2019-03-06T05:25:54.672Z,2.90
2019-03-06T05:28:25.112Z,3.10
2019-03-06T05:30:55.242Z,3.23
2019-03-06T05:33:25.798Z,3.60
2019-03-06T05:36:50.633Z,3.10
2019-03-06T05:39:20.919Z,3.70
2019-03-06T05:41:51.554Z,3.27
2019-03-06T05:44:21.749Z,3.50
2019-03-06T05:46:52.309Z,3.70
2019-03-06T05:49:22.446Z,3.53
2019-03-06T05:51:52.624Z,3.53
2019-03-06T05:54:22.982Z,3.87
2019-03-06T05:56:53.496Z,3.43
2019-03-06T05:59:23.632Z,3.60
2019-03-06T06:01:54.355Z,3.40
2019-03-06T06:04:25.524Z,3.30
2019-03-06T06:06:56.421Z,3.20
2019-03-06T06:09:26.933Z,3.60
2019-03-06T06:11:57.217Z,3.20
2019-03-06T06:14:27.350Z,3.50
2019-03-06T06:16:59.505Z,3.23
2019-03-06T06:19:30.035Z,3.30
2019-03-06T06:22:09.205Z,3.13
2019-03-06T06:24:39.281Z,3.43
2019-03-06T06:27:09.509Z,3.50
2019-03-06T06:29:39.803Z,2.90
2019-03-06T06:32:10.059Z,3.30
2019-03-06T06:34:40.662Z,3.10
2019-03-06T06:37:11.886Z,3.10
2019-03-06T06:39:43.935Z,3.07
2019-03-06T06:42:15.834Z,3.37
2019-03-06T06:44:46.489Z,3.27
2019-03-06T06:47:16.715Z,3.40
2019-03-06T06:49:47.535Z,3.27
2019-03-06T06:52:39.694Z,2.80
2019-03-06T06:55:20.015Z,2.80
2019-03-06T06:58:31.547Z,4.17
2019-03-06T07:01:26.317Z,12.40
2019-03-06T07:04:50.606Z,24.27
2019-03-06T07:07:43.846Z,34.33
2019-03-06T07:10:35.800Z,37.37
2019-03-06T07:13:20.636Z,35.70
2019-03-06T07:16:10.621Z,33.60
2019-03-06T07:19:02.458Z,34.17
2019-03-06T07:21:38.618Z,33.83
2019-03-06T07:24:38.939Z,32.97
2019-03-06T07:27:25.187Z,30.23
2019-03-06T07:30:21.393Z,29.87
2019-03-06T07:33:28.787Z,27.47
2019-03-06T07:36:21.033Z,27.57
2019-03-06T07:38:57.791Z,26.80
2019-03-06T07:41:55.811Z,25.87
2019-03-06T07:44:47.927Z,24.83
2019-03-06T07:47:28.017Z,24.23
2019-03-06T07:50:26.551Z,23.80
2019-03-06T07:54:11.890Z,22.37
2019-03-06T07:56:59.325Z,21.80
2019-03-06T07:59:31.558Z,20.97
2019-03-06T08:02:08.636Z,22.47
2019-03-06T08:04:39.858Z,20.33
2019-03-06T08:07:13.955Z,19.80
2019-03-06T08:09:44.955Z,19.93
2019-03-06T08:12:32.942Z,18.83
2019-03-06T08:15:24.922Z,18.33
2019-03-06T08:18:13.174Z,17.80
2019-03-06T08:21:11.366Z,18.40
2019-03-06T08:23:55.270Z,18.00
2019-03-06T08:26:25.617Z,17.23
2019-03-06T08:28:56.062Z,17.03
2019-03-06T08:31:31.763Z,16.93
2019-03-06T08:34:01.928Z,15.83
2019-03-06T08:36:33.705Z,15.87
2019-03-06T08:39:04.429Z,14.93
2019-03-06T08:41:36.891Z,15.43
2019-03-06T08:44:07.082Z,14.57
2019-03-06T08:46:47.161Z,15.07
2019-03-06T08:49:42.250Z,14.47
2019-03-06T08:52:34.166Z,14.17
2019-03-06T08:55:11.243Z,14.27
2019-03-06T08:58:03.402Z,14.20
2019-03-06T09:00:48.290Z,13.80
2019-03-06T09:03:37.434Z,12.53
2019-03-06T09:06:36.150Z,13.53
2019-03-06T09:09:41.374Z,12.47
2019-03-06T09:12:42.019Z,11.93
2019-03-06T09:15:24.908Z,11.97
2019-03-06T09:18:10.472Z,12.40
2019-03-06T09:21:00.545Z,12.00
2019-03-06T09:23:54.819Z,12.00
2019-03-06T09:26:35.452Z,11.90
2019-03-06T09:29:18.943Z,10.80
2019-03-06T09:32:09.283Z,10.60
2019-03-06T09:34:47.734Z,10.83
2019-03-06T09:37:36.965Z,10.63
2019-03-06T09:40:32.035Z,10.83
2019-03-06T09:43:33.255Z,10.37
2019-03-06T09:46:26.447Z,10.07
2019-03-06T09:49:21.859Z,10.27
2019-03-06T09:52:02.593Z,10.63
2019-03-06T09:55:10.011Z,9.57
2019-03-06T09:57:57.591Z,9.70
2019-03-06T10:00:49.468Z,9.77
2019-03-06T10:03:38.364Z,9.10
2019-03-06T10:06:24.403Z,9.17
2019-03-06T10:09:25.780Z,8.90
2019-03-06T10:12:25.060Z,9.03
2019-03-06T10:15:19.783Z,8.17
2019-03-06T10:18:00.521Z,8.57
2019-03-06T10:20:32.964Z,8.27
2019-03-06T10:23:03.261Z,8.40
2019-03-06T10:25:33.454Z,8.33
2019-03-06T10:28:06.597Z,8.27
2019-03-06T10:30:36.531Z,8.40
2019-03-06T10:33:07.087Z,7.90
2019-03-06T10:35:37.556Z,8.53
2019-03-06T10:38:08.311Z,8.30
2019-03-06T10:40:40.679Z,7.83
2019-03-06T10:43:11.984Z,8.40
2019-03-06T10:45:42.962Z,7.60
2019-03-06T10:48:13.193Z,7.20
2019-03-06T10:50:44.610Z,8.00
2019-03-06T10:53:16.734Z,7.57
2019-03-06T10:55:47.593Z,7.50
2019-03-06T10:58:18.185Z,7.60
2019-03-06T11:00:53.212Z,7.77
2019-03-06T11:03:28.885Z,7.90
2019-03-06T11:05:59.134Z,7.50
2019-03-06T11:08:29.484Z,7.37
2019-03-06T11:10:59.777Z,7.33
2019-03-06T11:13:29.901Z,7.67
2019-03-06T11:16:00.379Z,7.13
2019-03-06T11:18:30.466Z,7.40
2019-03-06T11:21:01.559Z,7.37
2019-03-06T11:23:32.859Z,7.03
2019-03-06T11:26:03.047Z,7.00
2019-03-06T11:28:33.901Z,8.03
2019-03-06T11:31:04.209Z,6.63
2019-03-06T11:33:36.795Z,6.80
2019-03-06T11:36:07.201Z,6.53
2019-03-06T11:38:37.837Z,6.93
2019-03-06T11:41:08.242Z,7.00
2019-03-06T11:43:38.413Z,6.50
2019-03-06T11:46:10.448Z,6.67
2019-03-06T11:48:40.611Z,6.10
2019-03-06T11:51:10.869Z,6.43
2019-03-06T11:53:41.334Z,6.17
2019-03-06T11:56:11.514Z,6.87
2019-03-06T11:58:41.684Z,6.10
2019-03-06T12:01:14.697Z,6.10
2019-03-06T12:03:44.987Z,6.30
2019-03-06T12:06:15.189Z,6.07
2019-03-06T12:08:45.815Z,6.40
2019-03-06T12:11:16.470Z,5.83
2019-03-06T12:13:47.218Z,5.73
2019-03-06T12:16:20.097Z,5.80
2019-03-06T12:18:50.610Z,5.70
2019-03-06T12:21:21.237Z,5.97
2019-03-06T12:23:51.467Z,6.30
2019-03-06T12:26:21.572Z,6.20
2019-03-06T12:28:51.853Z,5.87
2019-03-06T12:31:23.491Z,5.87
2019-03-06T12:33:53.694Z,5.93
2019-03-06T12:36:23.978Z,6.00
2019-03-06T12:38:54.350Z,5.97
2019-03-06T12:41:24.570Z,5.40
2019-03-06T12:43:54.925Z,6.23
2019-03-06T12:46:27.934Z,5.80
2019-03-06T12:49:04.253Z,5.30
2019-03-06T12:51:36.331Z,6.00
2019-03-06T12:54:07.800Z,5.13
2019-03-06T12:56:38.031Z,5.60
2019-03-06T12:59:08.350Z,5.60
2019-03-06T13:01:39.656Z,5.90
2019-03-06T13:04:11.037Z,5.60
2019-03-06T13:06:41.307Z,5.10
2019-03-06T13:09:19.635Z,5.23
2019-03-06T13:11:49.696Z,5.40
2019-03-06T13:14:20.102Z,5.27
2019-03-06T13:16:50.906Z,5.57
2019-03-06T13:19:21.160Z,4.83
2019-03-06T13:21:51.610Z,5.27
2019-03-06T13:24:22.061Z,5.30
2019-03-06T13:26:53.984Z,4.87
2019-03-06T13:29:25.796Z,4.87
2019-03-06T13:31:57.678Z,5.00
2019-03-06T13:34:50.376Z,4.63
2019-03-06T13:37:15.623Z,4.93
2019-03-06T13:39:47.053Z,4.80
2019-03-06T13:42:18.187Z,4.80
2019-03-06T13:44:48.392Z,4.33
2019-03-06T13:47:20.001Z,4.60
2019-03-06T13:49:50.131Z,4.63
2019-03-06T13:52:20.296Z,4.83
2019-03-06T13:54:51.160Z,4.50
2019-03-06T13:57:22.480Z,4.70
2019-03-06T13:59:52.779Z,4.77
2019-03-06T14:02:23.051Z,4.60
2019-03-06T14:04:53.704Z,4.50
2019-03-06T14:07:24.362Z,4.37
2019-03-06T14:09:54.805Z,4.43
2019-03-06T14:12:24.899Z,4.50
2019-03-06T14:14:55.160Z,4.70
2019-03-06T14:17:25.249Z,4.27
2019-03-06T14:19:56.289Z,4.53
2019-03-06T14:22:26.361Z,4.00
2019-03-06T14:24:58.266Z,4.40
2019-03-06T14:27:28.399Z,3.90
2019-03-06T14:29:59.121Z,4.27
2019-03-06T14:32:29.226Z,4.17
2019-03-06T14:34:59.326Z,3.90
2019-03-06T14:37:29.382Z,3.97
2019-03-06T14:40:03.033Z,4.23
2019-03-06T14:42:32.413Z,4.47
2019-03-06T14:45:03.650Z,4.40
2019-03-06T14:47:33.685Z,4.00
2019-03-06T14:50:04.018Z,3.97
2019-03-06T14:52:34.075Z,3.83
2019-03-06T14:55:04.442Z,4.03
2019-03-06T14:57:34.766Z,4.23
2019-03-06T15:00:04.935Z,3.87
2019-03-06T15:02:35.143Z,4.17
2019-03-06T15:05:05.620Z,4.23
2019-03-06T15:07:35.962Z,3.87
2019-03-06T15:10:07.734Z,4.10
2019-03-06T15:12:37.783Z,3.73
2019-03-06T15:15:08.998Z,3.87
2019-03-06T15:17:39.150Z,3.80
2019-03-06T15:20:11.669Z,3.83
2019-03-06T15:22:41.833Z,4.00
2019-03-06T15:25:14.378Z,3.73
2019-03-06T15:27:44.568Z,3.77
2019-03-06T15:30:16.003Z,3.60
2019-03-06T15:32:46.183Z,3.90
2019-03-06T15:35:16.363Z,4.00
2019-03-06T15:37:46.523Z,3.93
2019-03-06T15:40:22.214Z,3.87
2019-03-06T15:42:52.125Z,3.80
2019-03-06T15:45:25.097Z,3.60
2019-03-06T15:47:56.965Z,4.00
2019-03-06T15:50:28.175Z,4.47
2019-03-06T15:52:58.812Z,4.40
2019-03-06T15:55:28.978Z,4.70
2019-03-06T15:57:59.293Z,4.07
2019-03-06T16:00:33.382Z,4.43
2019-03-06T16:03:04.740Z,4.30
2019-03-06T16:05:35.105Z,4.67
2019-03-06T16:08:05.761Z,4.43
2019-03-06T16:10:36.185Z,4.60
2019-03-06T16:13:06.625Z,4.73
2019-03-06T16:15:36.893Z,4.60
2019-03-06T16:18:07.037Z,4.60
2019-03-06T16:20:37.335Z,4.60
2019-03-06T16:23:07.594Z,4.90
2019-03-06T16:25:40.007Z,5.30
2019-03-06T16:28:09.661Z,4.63
2019-03-06T16:30:39.887Z,5.47
2019-03-06T16:33:10.369Z,5.67
2019-03-06T16:35:40.746Z,5.10
2019-03-06T16:38:11.128Z,5.23
2019-03-06T16:40:41.316Z,5.07
2019-03-06T16:43:12.550Z,4.77
2019-03-06T16:45:42.792Z,4.83
2019-03-06T16:48:13.238Z,5.30
2019-03-06T16:50:43.551Z,5.20
2019-03-06T16:53:13.982Z,5.40
2019-03-06T16:55:44.567Z,5.50
2019-03-06T16:58:16.035Z,5.83
2019-03-06T17:00:46.886Z,5.53
2019-03-06T17:03:21.086Z,5.97
2019-03-06T17:05:52.272Z,5.80
2019-03-06T17:08:24.633Z,5.90
2019-03-06T17:10:57.613Z,7.30
2019-03-06T17:13:28.518Z,6.30
2019-03-06T17:16:00.910Z,6.37
2019-03-06T17:18:33.375Z,6.93
2019-03-06T17:21:04.027Z,7.40
2019-03-06T17:23:34.773Z,7.20
2019-03-06T17:26:05.247Z,7.10
2019-03-06T17:28:37.254Z,7.10
2019-03-06T17:31:08.364Z,7.20
2019-03-06T17:33:39.681Z,6.87
2019-03-06T17:36:11.385Z,7.23
2019-03-06T17:38:41.667Z,7.30
2019-03-06T17:41:11.986Z,7.00
2019-03-06T17:43:42.367Z,7.23
2019-03-06T17:46:31.669Z,7.00
2019-03-06T17:49:01.931Z,7.13
2019-03-06T17:51:33.822Z,7.20
2019-03-06T17:54:03.979Z,7.30
2019-03-06T17:56:35.118Z,7.13
2019-03-06T17:59:05.458Z,7.20
2019-03-06T18:01:36.811Z,6.97
2019-03-06T18:04:16.169Z,6.63
2019-03-06T18:06:46.406Z,6.67
2019-03-06T18:09:18.961Z,6.60
2019-03-06T18:11:49.337Z,6.90
2019-03-06T18:14:23.280Z,6.63
2019-03-06T18:16:54.266Z,6.43
2019-03-06T18:19:24.438Z,6.20
2019-03-06T18:21:55.706Z,6.63
2019-03-06T18:24:26.094Z,7.20
2019-03-06T18:26:56.955Z,7.10
2019-03-06T18:29:27.384Z,6.47
2019-03-06T18:31:58.863Z,7.03
2019-03-06T18:34:29.124Z,7.00
2019-03-06T18:37:00.040Z,7.27
2019-03-06T18:39:30.246Z,7.40
2019-03-06T18:42:00.627Z,6.67
2019-03-06T18:44:30.999Z,7.03
2019-03-06T18:47:01.225Z,7.00
2019-03-06T18:49:31.764Z,7.00
2019-03-06T18:52:01.800Z,6.90
2019-03-06T18:54:32.444Z,6.93
2019-03-06T18:57:02.793Z,7.27
2019-03-06T18:59:32.921Z,7.10
2019-03-06T19:02:03.147Z,6.80
2019-03-06T19:04:33.261Z,6.97
2019-03-06T19:07:03.945Z,7.00
2019-03-06T19:09:34.250Z,6.87
2019-03-06T19:12:05.302Z,7.20
2019-03-06T19:14:37.262Z,6.90
2019-03-06T19:17:09.458Z,6.93
2019-03-06T19:19:40.075Z,7.00
2019-03-06T19:22:10.616Z,7.23
2019-03-06T19:24:41.157Z,7.80
2019-03-06T19:27:11.771Z,7.20
2019-03-06T19:29:41.880Z,7.73
2019-03-06T19:32:12.090Z,7.20
2019-03-06T19:34:42.601Z,7.80
2019-03-06T19:37:13.259Z,7.30
2019-03-06T19:39:43.630Z,7.63
2019-03-06T19:42:14.063Z,8.30
2019-03-06T19:44:56.155Z,7.67
2019-03-06T19:47:26.295Z,7.83
2019-03-06T19:49:56.554Z,7.90
2019-03-06T19:52:26.994Z,7.70
2019-03-06T19:54:58.003Z,7.93
2019-03-06T19:57:30.171Z,7.90
2019-03-06T20:00:00.627Z,8.00
2019-03-06T20:02:31.178Z,8.23
2019-03-06T20:05:01.819Z,8.50
2019-03-06T20:07:33.774Z,8.40
2019-03-06T20:10:04.509Z,8.50
2019-03-06T20:12:35.191Z,8.63
2019-03-06T20:15:06.510Z,8.70
2019-03-06T20:17:36.795Z,8.37
2019-03-06T20:20:08.519Z,9.07
2019-03-06T20:22:39.400Z,8.83
2019-03-06T20:25:10.054Z,9.17
2019-03-06T20:27:40.625Z,8.97
2019-03-06T20:30:12.361Z,9.17
2019-03-06T20:32:47.295Z,9.50
2019-03-06T20:35:22.725Z,9.70
2019-03-06T20:37:54.448Z,9.17
2019-03-06T20:40:26.201Z,8.93
2019-03-06T20:42:56.598Z,9.17
2019-03-06T20:45:28.090Z,9.50
2019-03-06T20:47:58.761Z,9.50
2019-03-06T20:50:29.154Z,9.73
2019-03-06T20:53:00.742Z,9.70
2019-03-06T20:55:31.364Z,9.67
2019-03-06T20:58:02.221Z,9.93
2019-03-06T21:00:34.395Z,10.03
2019-03-06T21:03:05.010Z,9.83
2019-03-06T21:05:35.980Z,9.93
2019-03-06T21:08:06.871Z,10.23
2019-03-06T21:10:38.522Z,9.67
2019-03-06T21:13:08.875Z,10.20
2019-03-06T21:15:39.142Z,10.07
2019-03-06T21:18:11.081Z,10.03
2019-03-06T21:20:41.756Z,10.23
2019-03-06T21:23:12.390Z,10.23
2019-03-06T21:25:43.213Z,10.43
2019-03-06T21:28:15.056Z,10.37
2019-03-06T21:30:45.682Z,10.53
2019-03-06T21:33:16.849Z,10.73
2019-03-06T21:35:47.658Z,10.10
2019-03-06T21:38:18.160Z,10.33
2019-03-06T21:40:48.606Z,10.10
2019-03-06T21:43:19.469Z,10.20
2019-03-06T21:45:50.390Z,10.07
2019-03-06T21:48:21.099Z,10.33
2019-03-06T21:50:51.719Z,10.97
2019-03-06T21:53:23.657Z,10.47
2019-03-06T21:55:55.625Z,10.93
2019-03-06T21:58:26.205Z,10.20
2019-03-06T22:00:57.724Z,10.40
2019-03-06T22:03:37.187Z,10.57
2019-03-06T22:06:07.557Z,10.43
2019-03-06T22:08:38.420Z,10.50
2019-03-06T22:11:08.854Z,11.10
2019-03-06T22:13:39.573Z,10.17
2019-03-06T22:16:09.994Z,10.50
2019-03-06T22:18:43.474Z,9.27
2019-03-06T22:21:15.046Z,9.90
2019-03-06T22:23:47.244Z,10.10
2019-03-06T22:26:19.146Z,9.83
2019-03-06T22:28:55.798Z,10.07
2019-03-06T22:31:32.066Z,9.93
2019-03-06T22:34:05.225Z,9.90
2019-03-06T22:36:39.646Z,9.43
2019-03-06T22:39:14.599Z,9.73
2019-03-06T22:41:48.616Z,9.33
2019-03-06T22:44:23.613Z,9.07
2019-03-06T22:46:54.714Z,9.30
2019-03-06T22:49:26.049Z,9.47
2019-03-06T22:51:56.544Z,8.97
2019-03-06T22:54:27.363Z,9.30
2019-03-06T22:56:58.956Z,8.77
2019-03-06T22:59:29.563Z,8.77
2019-03-06T23:02:00.242Z,8.90
2019-03-06T23:04:30.679Z,8.93
2019-03-06T23:07:01.092Z,8.53
2019-03-06T23:09:31.847Z,8.57
2019-03-06T23:12:03.470Z,8.73
2019-03-06T23:14:35.977Z,8.37
2019-03-06T23:17:06.762Z,8.37
2019-03-06T23:19:37.173Z,8.70
2019-03-06T23:22:08.267Z,8.13
2019-03-06T23:24:42.097Z,8.50
2019-03-06T23:27:12.572Z,8.37
2019-03-06T23:29:44.820Z,8.00
2019-03-06T23:32:18.916Z,8.43
2019-03-06T23:34:49.175Z,8.23
2019-03-06T23:37:19.548Z,8.07
2019-03-06T23:39:50.285Z,8.17
2019-03-06T23:42:20.860Z,8.10
2019-03-06T23:44:51.374Z,8.23
2019-03-06T23:47:21.820Z,8.17
2019-03-06T23:49:52.294Z,8.27
2019-03-06T23:52:28.533Z,7.53
2019-03-06T23:54:58.724Z,8.00
2019-03-06T23:57:29.323Z,8.13
